Time;durP1;ratioP1;P1;durP2;ratioP2;P2;SDS_P1;SDS_P2;PMS_P1;PMS_P2;Temp;Humidity;BMP_temperature;BMP_pressure;BME280_temperature;BME280_humidity;BME280_pressure;Samples;Min_cycle;Max_cycle;Signal;HPM_P1;HPM_P2
2023/06/02 00:01:00;;;;;;;9.57;1.15;;;11.00;99.90;;;;;;5054744;28;20041;-56
2023/06/02 00:03:30;;;;;;;5.40;0.70;;;10.90;99.90;;;;;;5055638;28;20128;-56
2023/06/02 00:05:57;;;;;;;6.53;0.90;;;10.90;99.90;;;;;;5055665;28;20503;-56
2023/06/02 00:08:23;;;;;;;5.55;0.88;;;10.90;99.90;;;;;;5055400;28;20488;-56
2023/06/02 00:10:49;;;;;;;4.07;0.95;;;11.00;99.90;;;;;;5055629;28;20088;-56
2023/06/02 00:13:15;;;;;;;4.45;0.82;;;11.00;99.90;;;;;;5055481;28;20040;-56
2023/06/02 00:15:40;;;;;;;6.00;1.00;;;11.00;99.90;;;;;;5055376;28;20107;-56
2023/06/02 00:18:07;;;;;;;3.53;0.73;;;11.00;99.90;;;;;;5054302;28;20053;-56
2023/06/02 00:20:33;;;;;;;4.47;0.63;;;10.90;99.90;;;;;;5054539;28;20507;-56
2023/06/02 00:23:01;;;;;;;4.15;0.93;;;10.90;99.90;;;;;;5055419;28;20044;-55
2023/06/02 00:25:28;;;;;;;3.72;0.77;;;10.90;99.90;;;;;;5055419;28;20503;-55
2023/06/02 00:27:53;;;;;;;4.50;0.55;;;10.80;99.90;;;;;;5055329;28;20106;-56
2023/06/02 00:30:19;;;;;;;9.70;1.10;;;10.80;99.90;;;;;;5055120;28;20045;-55
2023/06/02 00:32:45;;;;;;;4.20;0.67;;;10.80;99.90;;;;;;5054916;28;20056;-56
2023/06/02 00:35:10;;;;;;;3.00;0.70;;;10.80;99.90;;;;;;5055178;28;20071;-56
2023/06/02 00:37:36;;;;;;;2.30;0.60;;;10.90;99.90;;;;;;5055188;28;20041;-56
2023/06/02 00:40:02;;;;;;;6.03;0.83;;;10.80;99.90;;;;;;5054044;28;20511;-56
2023/06/02 00:42:28;;;;;;;4.97;0.75;;;10.80;99.90;;;;;;5053940;28;20044;-56
2023/06/02 00:44:54;;;;;;;2.57;0.73;;;10.80;99.90;;;;;;5054872;28;20055;-55
2023/06/02 00:47:19;;;;;;;3.80;1.10;;;10.90;99.90;;;;;;5054658;28;20128;-56
2023/06/02 00:49:45;;;;;;;4.63;0.90;;;10.80;99.90;;;;;;5053621;28;20037;-56
2023/06/02 00:52:15;;;;;;;5.97;0.80;;;10.80;99.90;;;;;;5054828;28;20504;-56
2023/06/02 00:54:41;;;;;;;3.95;1.67;;;10.80;99.90;;;;;;5054740;28;20095;-55
2023/06/02 00:57:07;;;;;;;6.17;0.97;;;10.80;99.90;;;;;;5053453;28;20049;-56
2023/06/02 00:59:33;;;;;;;4.70;0.80;;;10.80;99.90;;;;;;5054742;28;20099;-56
2023/06/02 01:01:59;;;;;;;4.50;0.70;;;10.80;99.90;;;;;;5054575;28;20041;-56
2023/06/02 01:04:26;;;;;;;5.68;0.90;;;10.70;99.90;;;;;;5054542;28;20081;-56
2023/06/02 01:06:53;;;;;;;5.18;0.90;;;10.70;99.90;;;;;;5054565;28;20084;-56
2023/06/02 01:09:19;;;;;;;4.72;1.05;;;10.70;99.90;;;;;;5054413;28;20052;-56
2023/06/02 01:11:48;;;;;;;6.43;1.10;;;10.70;99.90;;;;;;5053875;28;20059;-56
2023/06/02 01:14:14;;;;;;;3.17;0.70;;;10.70;99.90;;;;;;5054378;28;20407;-56
2023/06/02 01:16:44;;;;;;;2.80;0.70;;;10.70;99.90;;;;;;5054356;28;20045;-56
2023/06/02 01:19:14;;;;;;;4.38;0.80;;;10.70;99.90;;;;;;5054282;28;20049;-56
2023/06/02 01:21:47;;;;;;;5.50;1.15;;;10.70;99.90;;;;;;5054385;28;20049;-56
2023/06/02 01:24:14;;;;;;;3.60;1.00;;;10.70;99.90;;;;;;5054116;28;20104;-56
2023/06/02 01:26:40;;;;;;;5.15;1.20;;;10.70;99.90;;;;;;5053008;28;20510;-56
2023/06/02 01:29:07;;;;;;;5.22;0.68;;;10.70;99.90;;;;;;5053774;28;20045;-55
2023/06/02 01:31:47;;;;;;;4.22;0.73;;;10.70;99.90;;;;;;5052886;28;20053;-56
2023/06/02 01:34:32;;;;;;;3.25;0.80;;;10.70;99.90;;;;;;5053999;28;20057;-55
2023/06/02 01:36:59;;;;;;;5.47;0.90;;;10.70;99.90;;;;;;5054236;28;20408;-55
2023/06/02 01:39:27;;;;;;;3.72;0.57;;;10.70;99.90;;;;;;5053822;28;20052;-54
2023/06/02 01:41:55;;;;;;;4.50;0.70;;;10.80;99.90;;;;;;5053915;28;20049;-56
2023/06/02 01:44:22;;;;;;;4.13;0.90;;;10.70;99.90;;;;;;5052954;28;20076;-55
2023/06/02 01:46:48;;;;;;;4.70;0.90;;;10.80;99.90;;;;;;5054019;28;20439;-55
2023/06/02 01:49:17;;;;;;;2.65;0.50;;;10.80;99.90;;;;;;5053808;28;20124;-56
2023/06/02 01:51:44;;;;;;;4.45;0.80;;;10.80;99.90;;;;;;5053614;28;20404;-55
2023/06/02 01:54:10;;;;;;;3.67;0.70;;;10.80;99.90;;;;;;5053570;28;20048;-56
2023/06/02 01:56:36;;;;;;;4.90;0.50;;;10.80;99.90;;;;;;5053762;28;20047;-56
2023/06/02 01:59:02;;;;;;;7.07;1.10;;;10.80;99.90;;;;;;5054116;28;20743;-56
2023/06/02 02:01:28;;;;;;;5.50;0.63;;;10.80;99.90;;;;;;5052757;28;20568;-56
2023/06/02 02:03:54;;;;;;;4.93;1.00;;;10.80;99.90;;;;;;5053778;28;20140;-56
2023/06/02 02:06:34;;;;;;;6.43;0.85;;;10.80;99.90;;;;;;5052615;28;20045;-56
2023/06/02 02:09:00;;;;;;;3.20;0.65;;;10.80;99.90;;;;;;5053006;28;20444;-55
2023/06/02 02:11:27;;;;;;;3.55;0.80;;;10.80;99.90;;;;;;5053093;28;20128;-56
2023/06/02 02:13:54;;;;;;;4.63;0.90;;;10.80;99.90;;;;;;5053374;28;20060;-56
2023/06/02 02:16:20;;;;;;;7.35;1.20;;;10.80;99.90;;;;;;5053370;28;20052;-55
2023/06/02 02:18:46;;;;;;;6.25;0.77;;;10.80;99.90;;;;;;5053403;28;20373;-56
2023/06/02 02:21:13;;;;;;;3.83;0.60;;;10.80;99.90;;;;;;5052378;28;20045;-56
2023/06/02 02:23:39;;;;;;;3.05;0.68;;;10.80;99.90;;;;;;5055952;28;20048;-55
2023/06/02 02:26:05;;;;;;;4.78;0.70;;;10.80;99.90;;;;;;5057642;28;20092;-56
2023/06/02 02:28:31;;;;;;;8.00;1.23;;;10.80;99.90;;;;;;5057757;28;20545;-56
2023/06/02 02:30:57;;;;;;;3.33;0.63;;;10.80;99.90;;;;;;5057576;28;20076;-55
2023/06/02 02:33:23;;;;;;;3.50;1.00;;;10.80;99.90;;;;;;5057427;28;20400;-55
2023/06/02 02:35:49;;;;;;;3.07;0.60;;;10.80;99.90;;;;;;5057148;28;20052;-56
2023/06/02 02:38:15;;;;;;;3.23;1.10;;;10.80;99.90;;;;;;5057438;28;20282;-55
2023/06/02 02:40:41;;;;;;;4.13;0.70;;;10.80;99.90;;;;;;5057410;28;20443;-56
2023/06/02 02:43:06;;;;;;;3.93;0.90;;;10.80;99.90;;;;;;5057735;28;20041;-56
2023/06/02 02:45:32;;;;;;;3.20;0.80;;;10.80;99.90;;;;;;5056015;28;20045;-56
2023/06/02 02:47:58;;;;;;;6.57;0.93;;;10.80;99.90;;;;;;5057130;28;20064;-56
2023/06/02 02:50:23;;;;;;;5.50;1.03;;;10.90;99.90;;;;;;5055927;28;20045;-55
2023/06/02 02:52:49;;;;;;;4.10;0.60;;;10.80;99.90;;;;;;5056357;28;20132;-55
2023/06/02 02:55:14;;;;;;;4.20;0.60;;;10.90;99.90;;;;;;5056877;28;20045;-56
2023/06/02 02:57:40;;;;;;;7.73;0.80;;;10.90;99.90;;;;;;5057282;28;20056;-55
2023/06/02 03:00:09;;;;;;;2.83;0.57;;;10.90;99.90;;;;;;5056848;28;20393;-56
2023/06/02 03:02:36;;;;;;;5.13;1.00;;;10.90;99.90;;;;;;5056970;28;20370;-56
2023/06/02 03:05:06;;;;;;;6.15;1.15;;;10.90;99.90;;;;;;5056804;28;20056;-55
2023/06/02 03:07:32;;;;;;;5.72;1.27;;;10.90;99.90;;;;;;5056896;28;20047;-56
2023/06/02 03:09:57;;;;;;;8.63;0.93;;;10.90;99.90;;;;;;5056707;28;20041;-56
2023/06/02 03:12:23;;;;;;;4.47;1.00;;;10.90;99.90;;;;;;5056772;28;20473;-55
2023/06/02 03:14:49;;;;;;;4.23;0.80;;;10.90;99.90;;;;;;5055499;28;20041;-56
2023/06/02 03:17:17;;;;;;;4.17;1.17;;;10.90;99.90;;;;;;5055430;28;20049;-56
2023/06/02 03:19:43;;;;;;;6.32;0.90;;;10.90;99.90;;;;;;5056336;28;20118;-55
2023/06/02 03:22:09;;;;;;;5.78;0.88;;;11.00;99.90;;;;;;5056326;28;20477;-55
2023/06/02 03:24:34;;;;;;;3.83;1.37;;;10.90;99.90;;;;;;5056560;28;20049;-55
2023/06/02 03:27:00;;;;;;;5.13;0.70;;;10.90;99.90;;;;;;5055109;28;20056;-56
2023/06/02 03:29:26;;;;;;;3.30;0.80;;;10.90;99.90;;;;;;5056384;28;20041;-56
2023/06/02 03:31:53;;;;;;;6.03;0.67;;;11.00;99.90;;;;;;5056409;28;20080;-55
2023/06/02 03:34:20;;;;;;;4.07;0.80;;;11.00;99.90;;;;;;5055756;28;20049;-55
2023/06/02 03:36:46;;;;;;;6.65;1.80;;;11.00;99.90;;;;;;5056358;28;20056;-55
2023/06/02 03:39:12;;;;;;;5.70;1.42;;;11.00;99.90;;;;;;5056379;28;20068;-55
2023/06/02 03:41:39;;;;;;;3.75;0.68;;;11.00;99.90;;;;;;5055535;28;20118;-55
2023/06/02 03:44:05;;;;;;;4.00;0.80;;;11.10;99.90;;;;;;5056069;28;20507;-55
2023/06/02 03:46:31;;;;;;;5.70;0.90;;;11.00;99.90;;;;;;5056054;28;20049;-54
2023/06/02 03:48:57;;;;;;;5.45;0.90;;;11.00;99.90;;;;;;5054588;28;20503;-56
2023/06/02 03:51:23;;;;;;;6.53;1.00;;;11.10;99.90;;;;;;5056015;28;20194;-56
2023/06/02 03:53:49;;;;;;;4.33;0.73;;;11.10;99.90;;;;;;5055975;28;20132;-55
2023/06/02 03:56:15;;;;;;;5.30;1.17;;;11.10;99.90;;;;;;5055915;28;20047;-55
2023/06/02 03:58:40;;;;;;;6.63;1.45;;;11.10;99.90;;;;;;5054757;28;20142;-55
2023/06/02 04:01:06;;;;;;;5.67;1.00;;;11.10;99.90;;;;;;5055980;28;20123;-56
2023/06/02 04:03:38;;;;;;;4.33;1.13;;;11.10;99.90;;;;;;5055681;28;20053;-55
2023/06/02 04:06:06;;;;;;;5.90;1.33;;;11.10;99.90;;;;;;5055754;28;20052;-56
2023/06/02 04:08:34;;;;;;;7.85;1.58;;;11.10;99.90;;;;;;5055714;28;20111;-55
2023/06/02 04:11:00;;;;;;;7.05;1.33;;;11.10;99.90;;;;;;5055538;28;20045;-55
2023/06/02 04:13:27;;;;;;;6.57;1.10;;;11.20;99.90;;;;;;5054419;28;20400;-54
2023/06/02 04:15:53;;;;;;;6.95;1.00;;;11.20;99.90;;;;;;5055475;28;20052;-55
2023/06/02 04:18:19;;;;;;;7.47;1.20;;;11.20;99.90;;;;;;5055541;28;20041;-56
2023/06/02 04:20:44;;;;;;;6.13;1.30;;;11.20;99.90;;;;;;5054564;28;20049;-55
2023/06/02 04:23:10;;;;;;;5.10;1.30;;;11.20;99.90;;;;;;5054498;28;20048;-55
2023/06/02 04:25:36;;;;;;;8.30;1.50;;;11.20;99.90;;;;;;5055023;28;20296;-55
2023/06/02 04:28:02;;;;;;;3.37;1.00;;;11.20;99.90;;;;;;5054207;28;20052;-55
2023/06/02 04:30:27;;;;;;;5.10;1.17;;;11.30;99.90;;;;;;5055071;28;20076;-56
2023/06/02 04:32:53;;;;;;;5.03;0.80;;;11.30;99.90;;;;;;5054371;28;20053;-56
2023/06/02 04:35:19;;;;;;;10.83;1.13;;;11.30;99.90;;;;;;5055810;28;20463;-56
2023/06/02 04:37:46;;;;;;;6.15;1.25;;;11.30;99.90;;;;;;5055211;28;20051;-56
2023/06/02 04:40:13;;;;;;;7.50;1.20;;;11.30;99.90;;;;;;5055079;28;20047;-56
2023/06/02 04:42:39;;;;;;;6.32;1.25;;;11.30;99.90;;;;;;5054850;28;20041;-55
2023/06/02 04:45:16;;;;;;;5.50;1.50;;;11.40;99.90;;;;;;5054147;28;20424;-56
2023/06/02 04:47:42;;;;;;;6.82;1.48;;;11.40;99.90;;;;;;5055063;28;20060;-56
2023/06/02 04:50:09;;;;;;;5.22;1.10;;;11.40;99.90;;;;;;5054823;28;20049;-56
2023/06/02 04:52:43;;;;;;;7.93;1.80;;;11.40;99.90;;;;;;5054871;28;20123;-56
2023/06/02 04:55:11;;;;;;;6.07;1.38;;;11.50;99.90;;;;;;5054817;28;20557;-56
2023/06/02 04:57:37;;;;;;;5.03;1.33;;;11.50;99.90;;;;;;5054383;28;20518;-56
2023/06/02 05:00:05;;;;;;;4.85;1.58;;;11.50;99.90;;;;;;5054697;28;20041;-56
2023/06/02 05:02:31;;;;;;;8.57;1.23;;;11.50;99.90;;;;;;5053499;28;20053;-56
2023/06/02 05:04:57;;;;;;;6.57;1.27;;;11.50;99.90;;;;;;5054514;28;20451;-55
2023/06/02 05:07:23;;;;;;;8.02;1.45;;;11.60;99.90;;;;;;5054746;28;20048;-56
2023/06/02 05:09:49;;;;;;;6.67;1.37;;;11.60;99.90;;;;;;5054419;28;20401;-56
2023/06/02 05:12:17;;;;;;;8.18;1.63;;;11.60;99.90;;;;;;5053333;28;20464;-56
2023/06/02 05:14:43;;;;;;;7.45;1.50;;;11.60;99.90;;;;;;5054466;28;20086;-54
2023/06/02 05:17:09;;;;;;;5.83;1.10;;;11.70;99.90;;;;;;5054291;28;20049;-55
2023/06/02 05:19:35;;;;;;;5.53;1.73;;;11.70;99.90;;;;;;5054333;28;20037;-55
2023/06/02 05:22:02;;;;;;;6.97;1.60;;;11.70;99.90;;;;;;5054301;28;20053;-55
2023/06/02 05:24:29;;;;;;;7.13;1.60;;;11.80;99.90;;;;;;5036306;28;20064;-55
2023/06/02 05:26:55;;;;;;;9.13;1.55;;;11.80;99.90;;;;;;5053967;28;20056;-55
2023/06/02 05:29:20;;;;;;;6.53;1.57;;;11.80;99.90;;;;;;5054034;28;20041;-54
2023/06/02 05:31:46;;;;;;;6.37;1.80;;;11.80;99.90;;;;;;5054142;28;20396;-52
2023/06/02 05:34:12;;;;;;;9.27;1.27;;;11.90;99.90;;;;;;5053924;28;20044;-56
2023/06/02 05:36:37;;;;;;;6.77;2.50;;;11.90;99.90;;;;;;5054088;28;20083;-54
2023/06/02 05:39:03;;;;;;;7.03;1.53;;;12.00;99.90;;;;;;5054036;28;20041;-55
2023/06/02 05:41:29;;;;;;;7.73;1.33;;;12.00;99.90;;;;;;5053845;28;20052;-55
2023/06/02 05:43:55;;;;;;;8.70;1.60;;;12.00;99.90;;;;;;5053948;28;20051;-55
2023/06/02 05:46:24;;;;;;;5.60;1.17;;;12.00;99.90;;;;;;5053910;28;20307;-56
2023/06/02 05:48:50;;;;;;;6.85;1.73;;;12.10;99.90;;;;;;5053783;28;20068;-56
2023/06/02 05:51:15;;;;;;;7.20;1.10;;;12.10;99.90;;;;;;5053858;28;20491;-55
2023/06/02 05:53:41;;;;;;;9.03;1.40;;;12.10;99.90;;;;;;5052713;28;20564;-55
2023/06/02 05:56:07;;;;;;;7.70;1.65;;;12.20;99.90;;;;;;5053634;28;20055;-56
2023/06/02 05:58:39;;;;;;;7.53;1.53;;;12.20;99.90;;;;;;5053867;28;20080;-55
2023/06/02 06:01:05;;;;;;;8.00;1.83;;;12.20;99.90;;;;;;5052696;28;20132;-55
2023/06/02 06:03:31;;;;;;;6.07;1.10;;;12.20;99.90;;;;;;5053640;28;20128;-56
2023/06/02 06:05:56;;;;;;;8.67;1.37;;;12.30;99.90;;;;;;5053585;28;20396;-55
2023/06/02 06:08:22;;;;;;;9.93;1.50;;;12.30;99.90;;;;;;5053325;28;20094;-56
2023/06/02 06:10:48;;;;;;;5.00;1.07;;;12.40;99.90;;;;;;5052345;28;20049;-55
2023/06/02 06:13:14;;;;;;;7.30;1.47;;;12.40;99.90;;;;;;5053611;28;20049;-57
2023/06/02 06:15:39;;;;;;;6.97;1.75;;;12.40;99.90;;;;;;5053499;28;20107;-55
2023/06/02 06:18:05;;;;;;;9.77;1.70;;;12.50;99.90;;;;;;5053477;28;20084;-55
2023/06/02 06:20:31;;;;;;;6.70;1.63;;;12.50;99.90;;;;;;5053469;28;20045;-56
2023/06/02 06:22:56;;;;;;;4.07;1.47;;;12.50;99.90;;;;;;5035550;28;20045;-53
2023/06/02 06:25:22;;;;;;;7.07;2.40;;;12.50;99.90;;;;;;5053078;28;20088;-55
2023/06/02 06:27:48;;;;;;;7.67;1.73;;;12.60;99.90;;;;;;5053467;28;20135;-55
2023/06/02 06:30:14;;;;;;;4.17;1.30;;;12.70;99.90;;;;;;5052164;28;20044;-55
2023/06/02 06:32:40;;;;;;;4.30;1.40;;;12.70;99.90;;;;;;5053301;28;20049;-56
2023/06/02 06:35:07;;;;;;;8.57;2.35;;;12.70;99.90;;;;;;5052515;28;20053;-56
2023/06/02 06:37:32;;;;;;;5.28;1.30;;;12.70;99.90;;;;;;5053382;28;20056;-54
2023/06/02 06:39:58;;;;;;;7.03;1.23;;;12.80;99.90;;;;;;5053149;28;20044;-53
2023/06/02 06:42:23;;;;;;;4.67;0.90;;;12.80;99.90;;;;;;5053283;28;20041;-55
2023/06/02 06:44:50;;;;;;;4.43;0.93;;;12.80;99.90;;;;;;5053319;28;20182;-56
2023/06/02 06:47:17;;;;;;;8.40;0.93;;;12.90;99.90;;;;;;5051937;28;20392;-52
2023/06/02 06:49:43;;;;;;;10.93;1.67;;;12.90;99.90;;;;;;5053087;28;20056;-54
2023/06/02 06:52:09;;;;;;;4.85;1.17;;;12.90;99.90;;;;;;5052169;28;20041;-55
2023/06/02 06:54:35;;;;;;;6.22;1.35;;;12.90;99.90;;;;;;5052988;28;20045;-54
2023/06/02 06:57:00;;;;;;;5.27;1.07;;;13.00;99.90;;;;;;5053213;28;20055;-56
2023/06/02 06:59:26;;;;;;;4.50;1.00;;;13.10;99.90;;;;;;5052179;28;20334;-55
2023/06/02 07:01:52;;;;;;;4.13;1.23;;;13.30;99.90;;;;;;5052888;28;20049;-56
2023/06/02 07:04:17;;;;;;;6.07;1.13;;;13.50;99.90;;;;;;5053188;28;20045;-56
2023/06/02 07:06:44;;;;;;;6.00;1.23;;;13.70;99.90;;;;;;5051904;28;20403;-56
2023/06/02 07:09:11;;;;;;;8.32;1.58;;;13.90;99.90;;;;;;5054335;28;20300;-56
2023/06/02 07:11:36;;;;;;;3.95;0.60;;;14.00;99.90;;;;;;5056757;28;20049;-56
2023/06/02 07:14:04;;;;;;;4.00;1.05;;;14.10;99.90;;;;;;5056733;28;20052;-56
2023/06/02 07:16:30;;;;;;;4.00;0.60;;;14.20;99.90;;;;;;5056539;28;20045;-56
2023/06/02 07:18:56;;;;;;;5.88;1.25;;;14.30;99.90;;;;;;5056659;28;20048;-55
2023/06/02 07:21:21;;;;;;;5.10;1.70;;;14.40;99.90;;;;;;5055225;28;20052;-55
2023/06/02 07:23:47;;;;;;;5.93;1.07;;;14.70;99.90;;;;;;5055144;28;20480;-55
2023/06/02 07:26:13;;;;;;;3.43;0.80;;;15.10;99.90;;;;;;5056950;28;20093;-56
2023/06/02 07:28:39;;;;;;;4.83;0.80;;;15.50;99.90;;;;;;5056629;28;20041;-56
2023/06/02 07:31:05;;;;;;;4.03;0.65;;;15.80;99.90;;;;;;5056326;28;20053;-58
2023/06/02 07:33:30;;;;;;;3.25;0.65;;;15.80;99.90;;;;;;5056219;28;20051;-56
2023/06/02 07:35:56;;;;;;;4.43;0.70;;;15.80;99.90;;;;;;5056242;28;20048;-55
2023/06/02 07:38:22;;;;;;;2.80;0.50;;;15.70;99.90;;;;;;5056203;28;20053;-56
2023/06/02 07:40:48;;;;;;;5.78;0.55;;;15.60;99.90;;;;;;5055283;28;20056;-56
2023/06/02 07:43:14;;;;;;;3.23;0.50;;;15.60;99.90;;;;;;5056105;28;20142;-56
2023/06/02 07:45:40;;;;;;;3.20;0.50;;;15.60;99.90;;;;;;5056193;28;20131;-56
2023/06/02 07:48:05;;;;;;;2.00;0.30;;;15.60;99.90;;;;;;5055991;28;20099;-56
2023/06/02 07:50:31;;;;;;;2.30;0.50;;;15.70;99.90;;;;;;5056048;28;20126;-56
2023/06/02 07:52:57;;;;;;;1.95;0.63;;;15.70;99.90;;;;;;5054815;28;20076;-57
2023/06/02 07:55:24;;;;;;;1.75;0.52;;;15.80;99.90;;;;;;5056015;28;20087;-56
2023/06/02 07:57:51;;;;;;;1.67;0.50;;;15.80;99.90;;;;;;5056139;28;20465;-57
2023/06/02 08:00:18;;;;;;;;;;;15.90;99.90;;;;;;5056172;28;20128;-56
2023/06/02 08:02:46;;;;;;;1.98;0.50;;;15.80;99.90;;;;;;5054665;28;20375;-55
2023/06/02 08:05:16;;;;;;;4.25;0.50;;;15.90;99.90;;;;;;5055596;28;20056;-57
2023/06/02 08:07:42;;;;;;;2.92;0.50;;;15.80;99.90;;;;;;5054550;28;20041;-57
2023/06/02 08:10:08;;;;;;;2.50;0.40;;;15.90;99.90;;;;;;5055353;28;20396;-56
2023/06/02 08:12:34;;;;;;;1.20;0.30;;;15.90;99.90;;;;;;5054353;28;20111;-58
2023/06/02 08:15:00;;;;;;;2.60;0.50;;;15.90;99.90;;;;;;5055578;28;20098;-51
2023/06/02 08:17:29;;;;;;;2.10;0.47;;;15.90;99.90;;;;;;5055410;28;20488;-56
2023/06/02 08:19:59;;;;;;;1.42;0.30;;;15.90;99.90;;;;;;5054409;28;20056;-55
2023/06/02 08:22:26;;;;;;;2.47;0.40;;;15.90;99.90;;;;;;5053947;28;20067;-48
2023/06/02 08:24:53;;;;;;;2.60;0.73;;;15.90;99.90;;;;;;5055180;28;20176;-48
2023/06/02 08:27:20;;;;;;;2.88;0.60;;;16.00;99.90;;;;;;5054867;28;20480;-47
2023/06/02 08:29:49;;;;;;;0.88;0.35;;;16.00;99.90;;;;;;5054844;28;20041;-48
2023/06/02 08:32:19;;;;;;;2.88;0.30;;;16.00;99.90;;;;;;5054919;28;20045;-48
2023/06/02 08:34:47;;;;;;;1.40;0.40;;;16.00;99.90;;;;;;5054958;28;20053;-52
2023/06/02 08:37:16;;;;;;;1.40;0.43;;;16.00;99.90;;;;;;5055126;28;20052;-49
2023/06/02 08:39:43;;;;;;;2.33;0.50;;;16.00;99.90;;;;;;5055008;28;20091;-52
2023/06/02 08:42:10;;;;;;;0.80;0.22;;;16.00;99.90;;;;;;5055000;28;20045;-51
2023/06/02 08:44:37;;;;;;;1.63;0.40;;;15.90;99.90;;;;;;5054972;28;20045;-48
2023/06/02 08:47:02;;;;;;;;;;;16.00;99.90;;;;;;5055227;28;20055;-51
2023/06/02 08:49:29;;;;;;;0.90;0.32;;;15.90;99.90;;;;;;5054398;28;20018;-48
2023/06/02 08:52:11;;;;;;;1.10;0.40;;;15.90;99.90;;;;;;5055208;28;20068;-49
2023/06/02 08:54:40;;;;;;;3.15;0.63;;;15.90;99.90;;;;;;5054891;28;20049;-48
2023/06/02 08:57:07;;;;;;;2.67;0.68;;;16.00;99.90;;;;;;5054695;28;20037;-47
2023/06/02 08:59:34;;;;;;;2.95;0.50;;;16.00;99.90;;;;;;5054532;28;20060;-55
2023/06/02 09:02:00;;;;;;;2.15;0.50;;;16.00;99.90;;;;;;5054957;28;20086;-49
2023/06/02 09:04:27;;;;;;;1.42;0.40;;;16.00;99.90;;;;;;5054687;28;20182;-49
2023/06/02 09:07:11;;;;;;;1.92;0.40;;;16.00;99.90;;;;;;5054610;28;20543;-48
2023/06/02 09:09:42;;;;;;;1.73;0.45;;;16.00;99.90;;;;;;5054603;28;20087;-47
2023/06/02 09:12:08;;;;;;;1.05;0.30;;;16.00;99.90;;;;;;5054346;28;20053;-48
2023/06/02 09:14:38;;;;;;;2.28;0.70;;;16.00;99.90;;;;;;5054453;28;20590;-49
2023/06/02 09:17:23;;;;;;;1.25;0.40;;;16.00;99.90;;;;;;5054413;28;20048;-50
2023/06/02 09:19:50;;;;;;;2.38;0.50;;;16.00;99.90;;;;;;5054481;28;20442;-49
2023/06/02 09:22:15;;;;;;;1.98;0.45;;;16.10;99.90;;;;;;5054289;28;20053;-49
2023/06/02 09:24:41;;;;;;;3.28;0.52;;;16.10;99.90;;;;;;5053799;28;20416;-50
2023/06/02 09:27:12;;;;;;;1.45;0.30;;;16.10;99.90;;;;;;5054239;28;20049;-49
2023/06/02 09:29:39;;;;;;;2.45;0.50;;;16.10;99.90;;;;;;5053236;28;20063;-48
2023/06/02 09:32:12;;;;;;;1.98;0.50;;;16.10;99.90;;;;;;5053780;28;20395;-55
2023/06/02 09:34:38;;;;;;;1.27;0.43;;;16.10;99.90;;;;;;5054092;28;20045;-49
2023/06/02 09:37:14;;;;;;;2.25;0.73;;;16.10;99.90;;;;;;5053966;28;20045;-56
2023/06/02 09:39:53;;;;;;;1.05;0.25;;;16.10;99.90;;;;;;5054083;28;20044;-50
2023/06/02 09:42:21;;;;;;;2.03;0.38;;;16.10;99.90;;;;;;5053900;28;20041;-47
2023/06/02 09:45:06;;;;;;;1.30;0.32;;;16.20;99.90;;;;;;5054115;28;20048;-50
2023/06/02 09:47:40;;;;;;;1.13;0.40;;;16.20;99.90;;;;;;5053657;28;20084;-49
2023/06/02 09:50:07;;;;;;;1.90;0.40;;;16.20;99.90;;;;;;5053762;28;20124;-51
2023/06/02 09:52:33;;;;;;;1.75;0.40;;;16.20;99.90;;;;;;5054115;28;20128;-49
2023/06/02 09:54:59;;;;;;;3.22;0.40;;;16.30;99.90;;;;;;5053970;28;20623;-49
2023/06/02 09:57:25;;;;;;;1.17;0.35;;;16.30;99.90;;;;;;5053887;28;20044;-49
2023/06/02 09:59:51;;;;;;;0.93;0.40;;;16.40;99.90;;;;;;5053796;28;20041;-48
2023/06/02 10:02:17;;;;;;;2.28;0.30;;;16.40;99.90;;;;;;5053491;28;20407;-48
2023/06/02 10:04:45;;;;;;;2.53;0.70;;;16.40;99.90;;;;;;5053594;28;20053;-48
2023/06/02 10:07:41;;;;;;;0.75;0.22;;;16.50;99.90;;;;;;5053102;28;20084;-50
2023/06/02 10:10:18;;;;;;;1.98;0.40;;;16.50;99.90;;;;;;5053447;28;20040;-53
2023/06/02 10:13:08;;;;;;;1.35;0.20;;;16.60;99.90;;;;;;5053338;28;20049;-56
2023/06/02 10:16:00;;;;;;;2.13;0.45;;;16.60;99.90;;;;;;5053531;28;20102;-48
2023/06/02 10:18:38;;;;;;;1.25;0.30;;;16.70;99.90;;;;;;5053425;28;20053;-55
2023/06/02 10:21:37;;;;;;;2.10;0.40;;;16.90;99.90;;;;;;5053481;28;20092;-52
2023/06/02 10:24:21;;;;;;;;;;;16.90;99.90;;;;;;5053634;28;20095;-50
2023/06/02 10:27:03;;;;;;;1.27;0.40;;;17.00;99.90;;;;;;5053447;28;19927;-48
2023/06/02 10:29:32;;;;;;;1.42;0.50;;;17.20;99.90;;;;;;5052141;28;20049;-47
2023/06/02 10:31:58;;;;;;;1.55;0.50;;;17.30;99.90;;;;;;5053429;28;20099;-48
2023/06/02 10:34:37;;;;;;;0.57;0.20;;;17.40;99.90;;;;;;5053405;28;20127;-48
2023/06/02 10:37:03;;;;;;;2.95;0.52;;;17.50;99.90;;;;;;5053189;28;20048;-53
2023/06/02 10:39:40;;;;;;;2.90;0.60;;;17.60;99.90;;;;;;5053168;28;20048;-53
2023/06/02 10:42:14;;;;;;;4.40;1.00;;;17.70;99.90;;;;;;5053248;28;20283;-49
2023/06/02 10:44:40;;;;;;;3.63;0.60;;;17.80;99.90;;;;;;5055714;28;20450;-52
2023/06/02 10:47:18;;;;;;;1.80;0.65;;;17.90;99.90;;;;;;5056344;28;20041;-51
2023/06/02 10:49:58;;;;;;;1.15;0.32;;;18.00;99.90;;;;;;5057158;28;20049;-54
2023/06/02 10:52:24;;;;;;;2.75;0.60;;;18.10;99.90;;;;;;5056909;28;20041;-49
2023/06/02 10:55:29;;;;;;;2.30;0.60;;;18.10;99.90;;;;;;5056819;28;20484;-48
2023/06/02 10:57:55;;;;;;;3.15;0.70;;;18.20;99.90;;;;;;5015053;28;20184;-49
2023/06/02 11:00:31;;;;;;;3.13;1.08;;;18.30;99.90;;;;;;5049533;28;20049;-49
2023/06/02 11:02:57;;;;;;;3.08;0.75;;;18.40;99.90;;;;;;5056914;28;20057;-47
2023/06/02 11:05:24;;;;;;;3.17;0.95;;;18.40;99.90;;;;;;5056672;28;20488;-48
2023/06/02 11:08:11;;;;;;;2.28;0.63;;;18.30;99.90;;;;;;5056829;28;20451;-49
2023/06/02 11:10:51;;;;;;;2.65;0.88;;;18.40;99.90;;;;;;5056848;28;20056;-56
2023/06/02 11:13:21;;;;;;;2.65;0.80;;;18.60;99.90;;;;;;5056715;28;20049;-50
2023/06/02 11:15:58;;;;;;;1.58;0.63;;;18.60;99.90;;;;;;5056791;28;20175;-48
2023/06/02 11:18:28;;;;;;;4.70;0.80;;;18.50;99.90;;;;;;5055908;28;20103;-49
2023/06/02 11:20:56;;;;;;;4.80;1.23;;;18.60;99.90;;;;;;5056530;28;20071;-49
2023/06/02 11:23:23;;;;;;;3.08;0.70;;;18.70;99.90;;;;;;5056605;28;20128;-49
2023/06/02 11:26:09;;;;;;;2.88;0.90;;;18.70;99.90;;;;;;5056707;28;20480;-50
2023/06/02 11:28:35;;;;;;;3.73;0.70;;;18.90;99.90;;;;;;5055780;28;20056;-48
2023/06/02 11:31:07;;;;;;;4.13;0.82;;;19.00;99.90;;;;;;5055375;28;20280;-49
2023/06/02 11:33:34;;;;;;;4.50;1.02;;;18.90;99.90;;;;;;5056379;28;20084;-48
2023/06/02 11:36:08;;;;;;;1.58;0.63;;;18.90;99.90;;;;;;5056099;28;20084;-53
2023/06/02 11:38:34;;;;;;;4.72;0.80;;;19.00;99.90;;;;;;5056465;28;20049;-51
2023/06/02 11:41:12;;;;;;;;;;;19.00;99.90;;;;;;5056413;28;20484;-52
2023/06/02 11:43:38;;;;;;;3.33;1.05;;;18.90;99.90;;;;;;5056211;28;19920;-50
2023/06/02 11:46:09;;;;;;;2.60;0.80;;;18.90;99.90;;;;;;5055206;28;20045;-54
2023/06/02 11:48:38;;;;;;;3.15;1.05;;;19.00;99.90;;;;;;5055991;28;20045;-57
2023/06/02 11:51:12;;;;;;;4.15;1.40;;;18.90;99.90;;;;;;5056007;28;20140;-49
2023/06/02 11:53:44;;;;;;;2.95;0.80;;;18.90;99.90;;;;;;5056321;28;20096;-52
2023/06/02 11:56:10;;;;;;;3.45;0.90;;;19.00;99.90;;;;;;5055671;28;20054;-55
2023/06/02 11:58:43;;;;;;;2.67;0.95;;;19.00;99.90;;;;;;5055678;28;20088;-50
2023/06/02 12:01:12;;;;;;;4.53;1.00;;;19.10;99.90;;;;;;5055575;28;20117;-50
2023/06/02 12:03:38;;;;;;;3.67;1.20;;;19.10;99.90;;;;;;5055804;28;20437;-49
2023/06/02 12:06:16;;;;;;;4.55;1.17;;;19.10;99.90;;;;;;5055751;28;20045;-54
2023/06/02 12:08:42;;;;;;;4.03;1.25;;;19.10;99.90;;;;;;5054632;28;20124;-55
2023/06/02 12:11:18;;;;;;;3.38;1.27;;;19.10;99.90;;;;;;5055673;28;20048;-52
2023/06/02 12:14:04;;;;;;;4.00;1.10;;;19.20;99.90;;;;;;5054567;28;20053;-50
2023/06/02 12:16:31;;;;;;;3.67;1.83;;;19.40;99.90;;;;;;5054339;28;20341;-56
2023/06/02 12:19:31;;;;;;;3.80;1.30;;;19.40;99.90;;;;;;5055549;28;20056;-56
2023/06/02 12:22:17;;;;;;;3.65;1.50;;;19.30;99.90;;;;;;5013321;28;20657;-48
2023/06/02 12:24:44;;;;;;;5.07;1.65;;;19.10;99.90;;;;;;5052222;28;20132;-49
2023/06/02 12:27:15;;;;;;;3.53;1.50;;;19.00;99.90;;;;;;5055322;28;20060;-48
2023/06/02 12:29:41;;;;;;;3.63;1.38;;;18.90;99.90;;;;;;5055243;28;20123;-50
2023/06/02 12:32:07;;;;;;;4.38;1.23;;;19.00;99.90;;;;;;5055309;28;20475;-50
2023/06/02 12:34:34;;;;;;;3.78;1.38;;;19.10;99.90;;;;;;5055139;28;20059;-50
2023/06/02 12:37:01;;;;;;;3.83;1.33;;;19.00;99.90;;;;;;5055584;28;20086;-51
2023/06/02 12:39:27;;;;;;;4.13;1.10;;;18.90;99.90;;;;;;5054299;28;20455;-48
2023/06/02 12:41:53;;;;;;;8.98;1.42;;;18.90;99.90;;;;;;5055266;28;20098;-47
2023/06/02 12:44:19;;;;;;;3.78;1.42;;;19.00;99.90;;;;;;5055107;28;20063;-55
2023/06/02 12:46:45;;;;;;;4.82;1.38;;;19.20;99.90;;;;;;5054732;28;20041;-53
2023/06/02 12:49:12;;;;;;;5.00;1.20;;;19.30;99.90;;;;;;5054556;28;20052;-49
2023/06/02 12:51:38;;;;;;;2.47;1.02;;;19.40;99.90;;;;;;5054820;28;20084;-50
2023/06/02 12:54:04;;;;;;;2.53;0.85;;;19.40;99.90;;;;;;5053824;28;20499;-54